Time;durP1;ratioP1;P1;durP2;ratioP2;P2;SDS_P1;SDS_P2;PMS_P1;PMS_P2;Temp;Humidity;BMP_temperature;BMP_pressure;BME280_temperature;BME280_humidity;BME280_pressure;Samples;Min_cycle;Max_cycle;Signal;HPM_P1;HPM_P2
2024/05/01 00:01:19;;;;;;;152.80;50.07;;;19.40;97.70;;;;;;5370311;26;20240;-51
2024/05/01 00:03:49;;;;;;;152.27;49.63;;;19.40;97.30;;;;;;5338568;26;20763;-51
2024/05/01 00:06:17;;;;;;;153.00;50.27;;;19.50;97.30;;;;;;5369802;26;20236;-51
2024/05/01 00:08:50;;;;;;;152.33;49.67;;;19.50;97.30;;;;;;5369235;26;20282;-52
2024/05/01 00:11:18;;;;;;;152.57;49.93;;;19.40;97.30;;;;;;5370234;26;20241;-51
2024/05/01 00:13:48;;;;;;;153.13;50.23;;;19.40;98.00;;;;;;5369470;26;20563;-51
2024/05/01 00:16:15;;;;;;;153.27;50.37;;;19.40;97.70;;;;;;5370069;26;20241;-52
2024/05/01 00:18:45;;;;;;;153.00;49.97;;;19.40;97.50;;;;;;5369185;26;20360;-51
2024/05/01 00:21:13;;;;;;;152.63;49.87;;;19.40;97.50;;;;;;5363361;26;20290;-51
2024/05/01 00:23:43;;;;;;;152.10;49.60;;;19.30;97.60;;;;;;5369702;26;20337;-52
2024/05/01 00:26:15;;;;;;;152.17;49.53;;;19.30;97.90;;;;;;5373688;26;20641;-51
2024/05/01 00:28:43;;;;;;;151.83;49.40;;;19.20;98.60;;;;;;5372573;26;20333;-51
2024/05/01 00:31:13;;;;;;;152.37;49.87;;;19.10;98.70;;;;;;5373117;26;20262;-50
2024/05/01 00:33:44;;;;;;;152.37;49.73;;;19.20;98.70;;;;;;5372537;26;20233;-50
2024/05/01 00:36:12;;;;;;;152.47;50.00;;;19.10;98.90;;;;;;5373154;26;20637;-49
2024/05/01 00:38:42;;;;;;;153.10;49.90;;;19.10;99.10;;;;;;5372485;26;20326;-49
2024/05/01 00:41:12;;;;;;;152.17;49.47;;;19.00;99.50;;;;;;5373354;26;20244;-49
2024/05/01 00:43:42;;;;;;;152.23;49.67;;;19.00;99.90;;;;;;5372499;26;20324;-49
2024/05/01 00:46:10;;;;;;;152.37;49.87;;;18.90;99.90;;;;;;5373103;26;20369;-49
2024/05/01 00:48:40;;;;;;;152.47;49.73;;;18.90;99.90;;;;;;5372139;26;20271;-49
2024/05/01 00:51:07;;;;;;;152.47;50.03;;;18.90;99.90;;;;;;5373038;26;20232;-49
2024/05/01 00:53:37;;;;;;;152.90;50.07;;;18.90;99.90;;;;;;5372183;26;20294;-49
2024/05/01 00:56:07;;;;;;;152.77;50.03;;;18.90;99.90;;;;;;5373199;26;20601;-49
2024/05/01 00:58:44;;;;;;;152.00;49.73;;;18.90;99.90;;;;;;5372394;26;20833;-49
2024/05/01 01:01:17;;;;;;;152.67;49.97;;;18.90;99.90;;;;;;5372979;26;20236;-49
2024/05/01 01:03:48;;;;;;;152.43;49.67;;;18.90;99.90;;;;;;5372333;26;20737;-49
2024/05/01 01:06:15;;;;;;;152.53;49.87;;;18.90;99.90;;;;;;5372820;26;20228;-50
2024/05/01 01:08:45;;;;;;;152.23;49.60;;;18.80;99.90;;;;;;5372107;26;20233;-50
2024/05/01 01:11:13;;;;;;;152.87;50.17;;;18.80;99.90;;;;;;5373207;26;20713;-49
2024/05/01 01:13:46;;;;;;;152.10;49.63;;;18.80;99.90;;;;;;5372016;26;20283;-50
2024/05/01 01:16:13;;;;;;;152.33;49.57;;;18.80;99.90;;;;;;5372930;26;20236;-50
2024/05/01 01:18:43;;;;;;;152.43;49.87;;;18.80;99.90;;;;;;5360743;26;20245;-50
2024/05/01 01:21:11;;;;;;;151.87;49.40;;;18.90;99.90;;;;;;5372684;26;20279;-49
2024/05/01 01:23:43;;;;;;;152.53;49.90;;;18.80;99.90;;;;;;5371924;26;20237;-50
2024/05/01 01:26:11;;;;;;;151.87;49.50;;;18.80;99.90;;;;;;5372839;26;20240;-50
2024/05/01 01:28:41;;;;;;;152.17;49.60;;;18.90;99.90;;;;;;5371880;26;20220;-50
2024/05/01 01:31:09;;;;;;;152.73;49.83;;;18.80;99.90;;;;;;5372736;26;20267;-54
2024/05/01 01:33:39;;;;;;;152.43;49.63;;;18.80;99.90;;;;;;5372002;26;20244;-50
2024/05/01 01:36:07;;;;;;;151.83;49.47;;;18.80;99.90;;;;;;5372178;26;20262;-50
2024/05/01 01:38:37;;;;;;;151.43;49.00;;;18.80;99.90;;;;;;5371389;26;20252;-50
2024/05/01 01:41:10;;;;;;;151.83;49.30;;;18.90;99.90;;;;;;5372747;26;20817;-50
2024/05/01 01:43:38;;;;;;;152.33;49.63;;;18.80;99.90;;;;;;5371607;26;20237;-50
2024/05/01 01:46:08;;;;;;;152.53;49.80;;;18.70;99.90;;;;;;5371795;26;20317;-50
2024/05/01 01:48:35;;;;;;;152.70;49.93;;;18.70;99.90;;;;;;5371769;26;20351;-50
2024/05/01 01:51:06;;;;;;;151.87;49.20;;;18.70;99.90;;;;;;5372417;26;20304;-49
2024/05/01 01:53:33;;;;;;;152.13;49.53;;;18.70;99.90;;;;;;5371633;26;20724;-49
2024/05/01 01:56:07;;;;;;;151.97;49.30;;;18.70;99.90;;;;;;5372928;26;20292;-50
2024/05/01 01:58:40;;;;;;;151.57;49.37;;;18.70;99.90;;;;;;5371286;26;20337;-50
2024/05/01 02:01:10;;;;;;;152.13;49.53;;;18.80;99.90;;;;;;5371975;26;20348;-49
2024/05/01 02:03:45;;;;;;;151.63;49.13;;;18.60;99.90;;;;;;5370863;26;20257;-50
2024/05/01 02:06:16;;;;;;;151.60;49.23;;;18.60;99.90;;;;;;5372159;26;20258;-49
2024/05/01 02:08:44;;;;;;;151.70;49.33;;;18.50;99.90;;;;;;5371500;26;20725;-50
2024/05/01 02:11:16;;;;;;;151.73;49.47;;;18.60;99.90;;;;;;5372012;26;20609;-50
2024/05/01 02:13:49;;;;;;;151.67;49.20;;;18.50;99.90;;;;;;5371114;26;20689;-49
2024/05/01 02:16:16;;;;;;;152.07;49.37;;;18.50;99.90;;;;;;5361645;26;20228;-49
2024/05/01 02:18:46;;;;;;;151.47;49.33;;;18.60;99.90;;;;;;5371029;26;20300;-49
2024/05/01 02:21:14;;;;;;;151.97;49.53;;;18.60;99.90;;;;;;5365025;26;20353;-52
2024/05/01 02:23:44;;;;;;;150.77;48.73;;;18.50;99.90;;;;;;5370840;26;20333;-52
2024/05/01 02:26:12;;;;;;;151.70;49.30;;;18.50;99.90;;;;;;5372810;26;20368;-52
2024/05/01 02:28:42;;;;;;;151.60;49.10;;;18.40;99.90;;;;;;5370809;26;20345;-52
2024/05/01 02:31:12;;;;;;;151.30;49.00;;;18.50;99.90;;;;;;5372175;26;20328;-51
2024/05/01 02:33:42;;;;;;;151.77;49.10;;;18.50;99.90;;;;;;5371000;26;20317;-52
2024/05/01 02:36:10;;;;;;;151.47;49.07;;;18.40;99.90;;;;;;5371767;26;20232;-52
2024/05/01 02:38:40;;;;;;;152.20;49.43;;;18.40;99.90;;;;;;5370282;26;20729;-52
2024/05/01 02:41:08;;;;;;;152.33;49.43;;;18.30;99.90;;;;;;5371495;26;20232;-52
2024/05/01 02:43:38;;;;;;;151.17;48.83;;;18.30;99.90;;;;;;5370625;26;20240;-51
2024/05/01 02:46:09;;;;;;;152.37;49.67;;;18.40;99.90;;;;;;5370796;26;20296;-53
2024/05/01 02:48:39;;;;;;;152.47;49.60;;;18.30;99.90;;;;;;5370712;26;20253;-51
2024/05/01 02:51:10;;;;;;;152.33;49.57;;;18.30;99.90;;;;;;5371109;26;20228;-52
2024/05/01 02:53:37;;;;;;;151.90;49.43;;;18.30;99.90;;;;;;5370917;26;20340;-52
2024/05/01 02:56:08;;;;;;;150.73;48.87;;;18.30;99.90;;;;;;5371450;26;20236;-51
2024/05/01 02:58:35;;;;;;;151.50;49.07;;;18.30;99.90;;;;;;5370728;26;20236;-51
2024/05/01 03:01:06;;;;;;;151.63;49.13;;;18.20;99.90;;;;;;5371012;26;20261;-51
2024/05/01 03:03:33;;;;;;;151.93;49.30;;;18.20;99.90;;;;;;5370579;26;20240;-51
2024/05/01 03:06:06;;;;;;;152.20;49.13;;;18.20;99.90;;;;;;5370973;26;20300;-52
2024/05/01 03:08:34;;;;;;;151.63;49.20;;;18.20;99.90;;;;;;5370531;26;20348;-51
2024/05/01 03:11:04;;;;;;;151.60;49.27;;;18.10;99.90;;;;;;5370986;26;20275;-51
2024/05/01 03:13:31;;;;;;;152.00;49.47;;;18.10;99.90;;;;;;5370493;26;20278;-52
2024/05/01 03:16:01;;;;;;;151.57;49.17;;;18.20;99.90;;;;;;5370921;26;20284;-50
2024/05/01 03:18:29;;;;;;;151.17;48.83;;;18.20;99.90;;;;;;5370244;26;20252;-51
2024/05/01 03:20:59;;;;;;;151.70;49.33;;;18.10;99.90;;;;;;5363363;26;20254;-51
2024/05/01 03:23:29;;;;;;;151.53;49.17;;;18.10;99.90;;;;;;5339686;26;20252;-51
2024/05/01 03:25:59;;;;;;;151.93;49.33;;;18.10;99.90;;;;;;5371064;26;20233;-51
2024/05/01 03:28:27;;;;;;;150.67;48.80;;;18.00;99.90;;;;;;5369931;26;20578;-50
2024/05/01 03:30:57;;;;;;;151.97;49.27;;;18.00;99.90;;;;;;5370676;26;20237;-51
2024/05/01 03:33:24;;;;;;;151.97;49.37;;;18.00;99.90;;;;;;5370376;26;20574;-51
2024/05/01 03:35:55;;;;;;;151.83;49.00;;;18.00;99.90;;;;;;5370479;26;20236;-50
2024/05/01 03:38:25;;;;;;;151.17;48.83;;;18.10;99.90;;;;;;5370128;26;20244;-51
2024/05/01 03:40:57;;;;;;;151.23;48.90;;;18.10;99.90;;;;;;5370877;26;20248;-50
2024/05/01 03:43:27;;;;;;;151.03;48.83;;;18.00;99.90;;;;;;5369925;26;20241;-51
2024/05/01 03:45:57;;;;;;;151.10;49.03;;;18.00;99.90;;;;;;5399182;26;20773;-52
2024/05/01 03:48:28;;;;;;;151.93;49.37;;;18.00;99.90;;;;;;5378584;26;20279;-50
2024/05/01 03:50:58;;;;;;;151.37;49.13;;;17.90;99.90;;;;;;5375794;26;20315;-50
2024/05/01 03:53:28;;;;;;;150.63;48.60;;;17.90;99.90;;;;;;5365055;26;20253;-49
2024/05/01 03:56:00;;;;;;;150.70;48.67;;;17.90;99.90;;;;;;5368314;26;20260;-50
2024/05/01 03:58:30;;;;;;;151.67;49.13;;;18.00;99.90;;;;;;5367555;26;20261;-52
2024/05/01 04:01:00;;;;;;;151.03;48.53;;;17.90;99.90;;;;;;5371951;26;20344;-52
2024/05/01 04:03:31;;;;;;;151.17;48.67;;;17.80;99.90;;;;;;5369772;26;20303;-52
2024/05/01 04:06:02;;;;;;;150.27;48.43;;;17.80;99.90;;;;;;5346510;26;20611;-52
2024/05/01 04:08:34;;;;;;;150.93;48.83;;;17.80;99.90;;;;;;5372780;26;20258;-50
2024/05/01 04:11:07;;;;;;;151.37;49.10;;;17.80;99.90;;;;;;5370883;26;20256;-50
2024/05/01 04:13:37;;;;;;;150.50;48.40;;;17.80;99.90;;;;;;5369884;26;20748;-51
2024/05/01 04:16:10;;;;;;;151.00;48.80;;;17.90;99.90;;;;;;5374213;26;20264;-53
2024/05/01 04:18:40;;;;;;;151.53;48.93;;;17.90;99.90;;;;;;5369303;26;20252;-52
2024/05/01 04:21:11;;;;;;;150.97;48.60;;;18.00;99.90;;;;;;5376883;26;20248;-51
2024/05/01 04:23:41;;;;;;;150.23;48.27;;;17.90;99.90;;;;;;5377383;26;20257;-51
2024/05/01 04:26:14;;;;;;;150.43;48.53;;;18.00;99.90;;;;;;5369535;26;20252;-53
2024/05/01 04:28:44;;;;;;;151.20;48.90;;;18.00;99.90;;;;;;5370339;26;20330;-51
2024/05/01 04:31:14;;;;;;;151.00;48.80;;;18.00;99.90;;;;;;5372455;26;20787;-51
2024/05/01 04:33:44;;;;;;;151.33;48.90;;;18.00;99.90;;;;;;5369292;26;20298;-52
2024/05/01 04:36:14;;;;;;;150.87;48.60;;;18.10;99.90;;;;;;5372234;26;20341;-51
2024/05/01 04:38:44;;;;;;;150.57;48.60;;;18.10;99.90;;;;;;5369018;26;20757;-53
2024/05/01 04:41:17;;;;;;;151.53;49.13;;;18.10;99.90;;;;;;5342513;26;20344;-51
2024/05/01 04:43:50;;;;;;;150.77;48.73;;;18.20;99.90;;;;;;5370435;26;20248;-50
2024/05/01 04:46:20;;;;;;;150.50;48.70;;;18.20;99.90;;;;;;5370421;26;20298;-61
2024/05/01 04:48:50;;;;;;;150.63;48.37;;;18.10;99.90;;;;;;5368999;26;20298;-51
2024/05/01 04:51:20;;;;;;;151.43;48.97;;;18.20;99.90;;;;;;5349626;26;20253;-52
2024/05/01 04:53:50;;;;;;;150.87;48.73;;;18.20;99.90;;;;;;5368858;26;20344;-53
2024/05/01 04:56:23;;;;;;;150.93;49.00;;;18.30;99.90;;;;;;5371861;26;20624;-51
2024/05/01 04:58:53;;;;;;;150.83;48.90;;;18.30;99.90;;;;;;5367626;26;20305;-52
2024/05/01 05:01:23;;;;;;;151.00;48.93;;;18.30;99.90;;;;;;5371218;26;20260;-54
2024/05/01 05:03:56;;;;;;;151.03;48.90;;;18.40;99.90;;;;;;5368678;26;20286;-54
2024/05/01 05:06:27;;;;;;;150.97;49.10;;;18.60;99.90;;;;;;5370936;26;20641;-51
2024/05/01 05:08:58;;;;;;;150.90;49.03;;;18.70;99.90;;;;;;5367555;26;20261;-51
2024/05/01 05:11:35;;;;;;;152.17;49.47;;;18.60;99.90;;;;;;5370667;26;20336;-51
2024/05/01 05:14:05;;;;;;;151.30;49.27;;;18.60;99.90;;;;;;5367769;26;20252;-51
2024/05/01 05:16:36;;;;;;;151.27;49.10;;;18.80;99.90;;;;;;5371365;26;20356;-51
2024/05/01 05:19:07;;;;;;;151.73;49.60;;;18.70;99.90;;;;;;5368726;26;20260;-51
2024/05/01 05:21:43;;;;;;;151.10;49.03;;;18.70;99.90;;;;;;5372428;26;20292;-53
2024/05/01 05:24:13;;;;;;;151.50;49.33;;;18.80;99.90;;;;;;5369293;26;20287;-51
2024/05/01 05:26:46;;;;;;;151.17;49.10;;;18.80;99.90;;;;;;5371872;26;20352;-52
2024/05/01 05:29:16;;;;;;;151.63;49.43;;;19.00;99.90;;;;;;5369224;26;20364;-50
2024/05/01 05:31:46;;;;;;;151.67;49.57;;;18.90;99.90;;;;;;5371328;26;20279;-51
2024/05/01 05:34:16;;;;;;;151.10;49.37;;;18.90;99.90;;;;;;5369559;26;20972;-52
2024/05/01 05:36:46;;;;;;;152.57;49.97;;;18.90;99.90;;;;;;5371168;26;20264;-52
2024/05/01 05:39:16;;;;;;;151.47;49.30;;;19.10;99.90;;;;;;5368264;26;21013;-52
2024/05/01 05:41:48;;;;;;;151.47;49.60;;;19.20;99.90;;;;;;5371256;26;20752;-51
2024/05/01 05:44:18;;;;;;;151.73;49.57;;;19.20;99.90;;;;;;5362974;26;20637;-52
2024/05/01 05:46:49;;;;;;;152.37;50.23;;;19.30;99.90;;;;;;5372121;26;20240;-51
2024/05/01 05:49:19;;;;;;;152.67;50.20;;;19.60;99.90;;;;;;5368091;26;20264;-51
2024/05/01 05:51:49;;;;;;;152.17;50.07;;;19.60;99.90;;;;;;5371710;26;20236;-53
2024/05/01 05:54:19;;;;;;;152.17;49.87;;;19.60;99.90;;;;;;5368992;26;20268;-53
2024/05/01 05:56:51;;;;;;;151.57;49.47;;;19.60;99.90;;;;;;5371052;26;20725;-52
2024/05/01 05:59:21;;;;;;;151.67;49.37;;;19.50;99.90;;;;;;5369059;26;20417;-52
2024/05/01 06:01:51;;;;;;;152.30;49.93;;;19.60;99.90;;;;;;5370409;26;20252;-53
2024/05/01 06:04:22;;;;;;;152.00;49.87;;;19.70;99.90;;;;;;5368875;26;20253;-51
2024/05/01 06:06:52;;;;;;;152.10;50.07;;;19.80;99.90;;;;;;5368767;26;20261;-52
2024/05/01 06:09:22;;;;;;;152.23;49.90;;;19.80;99.90;;;;;;5367915;26;20252;-53
2024/05/01 06:11:54;;;;;;;151.83;49.73;;;19.80;99.90;;;;;;5371164;26;20336;-52
2024/05/01 06:14:24;;;;;;;153.17;50.70;;;19.80;99.90;;;;;;5368224;26;20260;-51
2024/05/01 06:16:54;;;;;;;151.80;49.63;;;19.80;99.90;;;;;;5371255;26;20667;-52
2024/05/01 06:19:24;;;;;;;152.07;49.90;;;20.00;99.90;;;;;;5367298;26;20295;-52
2024/05/01 06:21:54;;;;;;;152.60;50.07;;;19.90;99.90;;;;;;5369199;26;20314;-53
2024/05/01 06:24:25;;;;;;;152.57;50.33;;;19.80;99.90;;;;;;5368892;26;20291;-52
2024/05/01 06:26:57;;;;;;;152.70;50.50;;;20.00;99.90;;;;;;5364279;26;20626;-53
2024/05/01 06:29:27;;;;;;;153.03;50.67;;;20.10;99.90;;;;;;5367500;26;20340;-54
2024/05/01 06:31:57;;;;;;;153.03;50.67;;;20.00;99.90;;;;;;5369483;26;20348;-54
2024/05/01 06:34:27;;;;;;;152.37;50.20;;;20.10;99.90;;;;;;5367578;26;20732;-53
2024/05/01 06:36:59;;;;;;;152.53;50.30;;;20.10;99.90;;;;;;5369233;26;20416;-52
2024/05/01 06:39:29;;;;;;;152.50;50.33;;;20.10;99.90;;;;;;5367220;26;20303;-52
2024/05/01 06:42:02;;;;;;;152.97;50.70;;;20.20;99.50;;;;;;5370910;26;20279;-53
2024/05/01 06:44:32;;;;;;;153.00;50.77;;;20.10;99.90;;;;;;5366299;26;20264;-53
2024/05/01 06:47:02;;;;;;;152.93;50.60;;;20.10;99.90;;;;;;5371161;26;20244;-52
2024/05/01 06:49:32;;;;;;;151.83;50.20;;;20.20;99.90;;;;;;5368368;26;20248;-51
2024/05/01 06:52:02;;;;;;;152.83;50.63;;;20.20;99.90;;;;;;5371073;26;20248;-53
2024/05/01 06:54:32;;;;;;;152.73;50.47;;;20.30;99.90;;;;;;5368453;26;20260;-54
2024/05/01 06:57:04;;;;;;;153.03;50.80;;;20.50;99.90;;;;;;5367515;26;20261;-51
2024/05/01 06:59:36;;;;;;;152.63;50.47;;;20.50;99.00;;;;;;5367705;26;20260;-50
2024/05/01 07:02:06;;;;;;;153.03;51.03;;;20.60;99.30;;;;;;5369819;26;20364;-55
2024/05/01 07:04:36;;;;;;;153.37;51.00;;;20.70;98.70;;;;;;5366725;26;20267;-51
2024/05/01 07:07:07;;;;;;;152.97;50.97;;;20.60;98.50;;;;;;5382719;26;20595;-52
2024/05/01 07:09:37;;;;;;;153.17;51.03;;;20.70;99.00;;;;;;5365398;26;20979;-55
2024/05/01 07:12:08;;;;;;;153.17;50.97;;;20.90;97.70;;;;;;5365779;26;20252;-52
2024/05/01 07:14:38;;;;;;;153.33;51.17;;;20.90;97.70;;;;;;5365522;26;20307;-54
2024/05/01 07:17:08;;;;;;;153.27;51.17;;;20.90;97.80;;;;;;5369068;26;20741;-49
2024/05/01 07:19:38;;;;;;;152.97;51.00;;;21.00;97.30;;;;;;5363461;26;20349;-55
2024/05/01 07:22:08;;;;;;;153.17;51.40;;;21.00;96.10;;;;;;5367759;26;20358;-53
2024/05/01 07:24:38;;;;;;;153.53;50.83;;;21.10;96.40;;;;;;5367699;26;20348;-52
2024/05/01 07:27:11;;;;;;;152.63;51.10;;;21.10;96.00;;;;;;5369359;26;20270;-51
2024/05/01 07:29:41;;;;;;;152.60;50.77;;;21.20;95.70;;;;;;5365044;26;20266;-54
2024/05/01 07:32:11;;;;;;;153.33;51.37;;;21.30;95.30;;;;;;5365222;26;20252;-52
2024/05/01 07:34:41;;;;;;;153.43;51.60;;;21.20;94.70;;;;;;5364904;26;20294;-53
2024/05/01 07:37:10;;;;;;;153.77;51.50;;;21.30;95.40;;;;;;5369092;26;20253;-51
2024/05/01 07:39:40;;;;;;;153.67;51.57;;;21.40;94.70;;;;;;5365182;26;20646;-52
2024/05/01 07:42:13;;;;;;;153.60;51.67;;;21.50;94.60;;;;;;5369247;26;20744;-52
2024/05/01 07:44:44;;;;;;;153.47;51.60;;;21.60;93.90;;;;;;5366161;26;20308;-52
2024/05/01 07:47:14;;;;;;;154.00;52.10;;;21.70;93.90;;;;;;5369474;26;20725;-52
2024/05/01 07:49:44;;;;;;;153.87;52.30;;;21.90;93.40;;;;;;5366812;26;20656;-54
2024/05/01 07:52:14;;;;;;;153.57;52.30;;;22.10;92.90;;;;;;5368415;26;20260;-51
2024/05/01 07:54:44;;;;;;;153.33;52.13;;;22.50;92.00;;;;;;5367257;26;20260;-51
2024/05/01 07:57:16;;;;;;;153.87;53.03;;;23.00;90.70;;;;;;5367099;26;20256;-51
2024/05/01 07:59:47;;;;;;;152.90;52.47;;;23.60;88.30;;;;;;5366739;26;20268;-51
2024/05/01 08:02:17;;;;;;;153.37;52.73;;;23.90;86.00;;;;;;5369154;26;20260;-51
2024/05/01 08:04:47;;;;;;;154.70;53.53;;;24.00;82.40;;;;;;5366197;26;20252;-51
2024/05/01 08:07:20;;;;;;;153.33;52.53;;;23.60;83.50;;;;;;5368934;26;20563;-52
2024/05/01 08:09:50;;;;;;;154.20;53.30;;;23.50;84.90;;;;;;5367119;26;20265;-50
2024/05/01 08:12:23;;;;;;;153.87;52.83;;;23.40;85.10;;;;;;5369332;26;20722;-51
2024/05/01 08:14:55;;;;;;;153.83;52.83;;;23.30;84.10;;;;;;5367193;26;20299;-51
2024/05/01 08:17:25;;;;;;;153.93;52.87;;;23.20;85.10;;;;;;5365699;26;20248;-52
2024/05/01 08:19:56;;;;;;;153.43;52.43;;;23.20;85.90;;;;;;5364896;26;20333;-54
2024/05/01 08:22:26;;;;;;;154.33;52.97;;;23.20;87.00;;;;;;5368856;26;20252;-51
2024/05/01 08:24:55;;;;;;;153.50;52.40;;;23.20;86.10;;;;;;5365831;26;20253;-50
2024/05/01 08:27:28;;;;;;;152.80;51.60;;;23.10;85.20;;;;;;5368453;26;20257;-50
2024/05/01 08:29:59;;;;;;;152.97;51.90;;;23.10;85.90;;;;;;5364257;26;20649;-51
2024/05/01 08:32:29;;;;;;;153.07;52.27;;;23.20;85.90;;;;;;5368147;26;20268;-50
2024/05/01 08:34:59;;;;;;;153.10;52.43;;;23.40;86.40;;;;;;5365355;26;20316;-51
2024/05/01 08:37:29;;;;;;;153.80;52.63;;;23.50;85.80;;;;;;5364769;26;20767;-50
2024/05/01 08:39:59;;;;;;;153.53;52.50;;;23.60;85.50;;;;;;5366167;26;20695;-50
2024/05/01 08:42:36;;;;;;;153.90;52.57;;;23.70;84.80;;;;;;5368063;26;20729;-50
2024/05/01 08:45:10;;;;;;;152.47;51.87;;;23.80;83.70;;;;;;5368094;26;20252;-51
2024/05/01 08:47:45;;;;;;;154.20;52.93;;;23.80;83.20;;;;;;5371741;26;20259;-51
2024/05/01 08:50:16;;;;;;;153.50;52.27;;;23.90;82.40;;;;;;5370035;26;20244;-51
2024/05/01 08:52:52;;;;;;;153.40;52.30;;;24.00;82.00;;;;;;5371508;26;20256;-51
2024/05/01 08:55:23;;;;;;;153.57;52.77;;;24.10;80.20;;;;;;5370765;26;20312;-51
2024/05/01 08:57:58;;;;;;;153.83;52.90;;;24.10;80.90;;;;;;5370966;26;20333;-51
2024/05/01 09:00:29;;;;;;;153.43;52.40;;;24.10;80.20;;;;;;5371143;26;20290;-50
2024/05/01 09:02:59;;;;;;;153.30;52.57;;;24.20;80.20;;;;;;5367099;26;20317;-54
2024/05/01 09:05:29;;;;;;;153.63;52.67;;;24.20;79.90;;;;;;5365700;26;20767;-51
2024/05/01 09:08:03;;;;;;;153.20;52.47;;;24.30;79.10;;;;;;5370874;26;20256;-50
2024/05/01 09:10:33;;;;;;;153.60;52.83;;;24.20;79.30;;;;;;5370810;26;20260;-50
2024/05/01 09:13:15;;;;;;;153.43;52.60;;;24.20;79.30;;;;;;5371149;26;20260;-50
2024/05/01 09:15:45;;;;;;;153.57;52.47;;;24.20;79.10;;;;;;5371442;26;20347;-51
2024/05/01 09:18:18;;;;;;;153.47;52.67;;;24.30;78.20;;;;;;5369515;26;22102;-54
2024/05/01 09:20:58;;;;;;;153.97;53.03;;;24.50;77.70;;;;;;5369991;26;20252;-50
2024/05/01 09:23:29;;;;;;;153.53;52.43;;;24.50;77.40;;;;;;5368094;26;20294;-50
2024/05/01 09:25:59;;;;;;;153.73;52.87;;;24.50;77.30;;;;;;5368011;26;20362;-51
2024/05/01 09:28:32;;;;;;;153.37;52.33;;;24.60;77.00;;;;;;5369462;26;20256;-50
2024/05/01 09:31:02;;;;;;;153.27;52.47;;;24.50;76.60;;;;;;5368454;26;20256;-51
2024/05/01 09:33:33;;;;;;;153.57;52.87;;;24.40;76.90;;;;;;5368695;26;20256;-54
2024/05/01 09:36:03;;;;;;;153.63;52.67;;;24.40;77.10;;;;;;5371208;26;20312;-51
2024/05/01 09:38:39;;;;;;;153.87;52.87;;;24.40;77.10;;;;;;5367071;26;21068;-50
2024/05/01 09:41:10;;;;;;;152.97;52.20;;;24.50;76.90;;;;;;5371299;26;20260;-51
2024/05/01 09:43:50;;;;;;;154.07;53.43;;;24.40;76.70;;;;;;5364034;26;20264;-51
2024/05/01 09:46:20;;;;;;;153.27;52.43;;;24.50;76.60;;;;;;5370257;26;20860;-50
2024/05/01 09:48:51;;;;;;;154.37;53.30;;;24.40;76.40;;;;;;5368582;26;20756;-54
2024/05/01 09:51:22;;;;;;;153.33;52.63;;;24.50;76.30;;;;;;5370406;26;20299;-51
2024/05/01 09:53:52;;;;;;;153.70;52.73;;;24.50;76.10;;;;;;5366010;26;20256;-51
2024/05/01 09:56:25;;;;;;;153.90;53.23;;;24.70;75.50;;;;;;5369171;26;20256;-50
2024/05/01 09:58:58;;;;;;;153.27;52.70;;;24.60;75.40;;;;;;5373027;26;20527;-51
2024/05/01 10:01:29;;;;;;;152.97;52.47;;;24.50;75.70;;;;;;5334996;26;20296;-50
2024/05/01 10:04:02;;;;;;;153.70;53.03;;;24.50;75.80;;;;;;5368961;26;20928;-55
2024/05/01 10:06:33;;;;;;;153.97;52.90;;;24.50;75.30;;;;;;5371314;26;20334;-51
2024/05/01 10:09:04;;;;;;;154.30;53.40;;;24.80;74.10;;;;;;5366682;26;20287;-51
2024/05/01 10:11:49;;;;;;;153.70;52.47;;;24.90;72.90;;;;;;5371011;26;20260;-51
2024/05/01 10:14:27;;;;;;;153.60;52.67;;;24.80;73.00;;;;;;5366790;26;20311;-51
2024/05/01 10:17:11;;;;;;;153.63;52.57;;;24.80;72.00;;;;;;5367902;26;20294;-51
2024/05/01 10:19:55;;;;;;;154.50;53.37;;;24.90;71.80;;;;;;5366143;26;20291;-54
2024/05/01 10:22:25;;;;;;;153.63;52.57;;;24.90;71.30;;;;;;5343875;26;20256;-55
2024/05/01 10:25:01;;;;;;;154.10;52.93;;;24.80;71.90;;;;;;5365973;26;20308;-51
2024/05/01 10:27:32;;;;;;;154.47;53.33;;;24.80;72.10;;;;;;5370654;26;20256;-48
2024/05/01 10:30:18;;;;;;;153.73;52.87;;;24.80;73.10;;;;;;5369000;26;20631;-49
2024/05/01 10:32:59;;;;;;;153.77;52.77;;;25.00;73.80;;;;;;5369286;26;20292;-50
2024/05/01 10:35:33;;;;;;;154.37;53.27;;;25.00;73.30;;;;;;5360361;26;20307;-48
2024/05/01 10:38:02;;;;;;;153.87;52.90;;;25.00;73.30;;;;;;5350512;26;20252;-49
2024/05/01 10:40:37;;;;;;;154.13;53.30;;;25.00;74.00;;;;;;5372796;26;20307;-48
2024/05/01 10:43:07;;;;;;;153.80;53.27;;;25.00;74.40;;;;;;5367386;26;20301;-50
2024/05/01 10:45:40;;;;;;;153.60;53.13;;;25.10;74.50;;;;;;5369295;26;20260;-49
2024/05/01 10:48:11;;;;;;;154.00;53.37;;;25.00;75.20;;;;;;5365485;26;20248;-48
2024/05/01 10:50:44;;;;;;;154.13;53.13;;;24.80;75.40;;;;;;5368439;26;20252;-48
2024/05/01 10:53:14;;;;;;;153.77;53.10;;;24.80;75.50;;;;;;5368929;26;20783;-51
2024/05/01 10:55:45;;;;;;;154.53;53.20;;;24.80;75.50;;;;;;5368903;26;20813;-49
2024/05/01 10:58:15;;;;;;;153.60;52.47;;;25.10;73.60;;;;;;5368643;26;20909;-48
2024/05/01 11:00:48;;;;;;;153.83;53.43;;;25.10;74.00;;;;;;5369639;26;20741;-50
2024/05/01 11:03:19;;;;;;;154.13;53.00;;;25.30;72.00;;;;;;5368707;26;20256;-52
2024/05/01 11:05:49;;;;;;;154.07;53.40;;;25.30;73.50;;;;;;5368888;26;20253;-48
2024/05/01 11:08:23;;;;;;;154.57;53.67;;;25.20;72.70;;;;;;5367273;26;20323;-49
2024/05/01 11:10:55;;;;;;;154.37;53.50;;;25.00;73.70;;;;;;5370108;26;20253;-48
2024/05/01 11:13:31;;;;;;;154.27;53.43;;;25.10;72.60;;;;;;5368381;26;20256;-49
2024/05/01 11:16:05;;;;;;;154.17;53.53;;;25.30;70.50;;;;;;5369277;26;20655;-49
2024/05/01 11:18:36;;;;;;;154.67;54.10;;;25.30;70.30;;;;;;5367721;26;20260;-52
2024/05/01 11:21:06;;;;;;;154.60;53.67;;;25.20;71.60;;;;;;5369115;26;20260;-49
2024/05/01 11:23:36;;;;;;;153.47;52.67;;;25.20;71.50;;;;;;5368103;26;20649;-48
2024/05/01 11:26:06;;;;;;;154.47;53.97;;;25.40;70.60;;;;;;5369271;26;20260;-48
2024/05/01 11:28:36;;;;;;;154.00;53.47;;;25.50;70.00;;;;;;5367329;26;20852;-48
2024/05/01 11:31:09;;;;;;;153.93;53.33;;;25.40;71.00;;;;;;5369959;26;20264;-50
2024/05/01 11:33:39;;;;;;;154.37;53.90;;;25.30;71.00;;;;;;5367240;26;20256;-52
2024/05/01 11:36:09;;;;;;;154.93;54.23;;;25.40;70.00;;;;;;5339025;26;20268;-51
2024/05/01 11:38:39;;;;;;;153.93;53.50;;;25.50;69.80;;;;;;5366847;26;20349;-48
2024/05/01 11:41:09;;;;;;;154.27;53.27;;;25.50;69.60;;;;;;5369753;26;20368;-48
2024/05/01 11:43:41;;;;;;;155.13;53.90;;;25.70;68.00;;;;;;5367506;26;20264;-48
2024/05/01 11:46:13;;;;;;;153.83;53.40;;;25.70;68.40;;;;;;5366992;26;20803;-48
2024/05/01 11:48:44;;;;;;;154.80;54.20;;;25.60;68.70;;;;;;5366551;26;20282;-52
2024/05/01 11:51:14;;;;;;;155.23;54.33;;;25.60;68.50;;;;;;5361596;26;20261;-47
2024/05/01 11:53:44;;;;;;;153.90;53.50;;;25.80;68.20;;;;;;5360920;26;20252;-48
2024/05/01 11:56:14;;;;;;;154.87;54.10;;;25.80;67.50;;;;;;5367807;26;20252;-48
2024/05/01 11:58:44;;;;;;;154.03;53.47;;;25.90;67.20;;;;;;5364715;26;20837;-48
2024/05/01 12:01:16;;;;;;;154.10;53.70;;;25.80;67.70;;;;;;5430527;26;20289;-47
2024/05/01 12:03:50;;;;;;;154.37;53.93;;;25.70;68.30;;;;;;5367836;26;20290;-52
2024/05/01 12:09:06;;;;;;;154.10;53.70;;;25.80;67.50;;;;;;5386726;26;20328;-48
2024/05/01 12:14:26;;;;;;;153.87;53.23;;;25.80;67.60;;;;;;5434022;26;20302;-51
2024/05/01 12:16:59;;;;;;;154.60;54.23;;;25.90;67.40;;;;;;5420117;26;20351;-48
2024/05/01 12:19:29;;;;;;;155.10;54.43;;;25.90;67.10;;;;;;5425348;26;20305;-49
2024/05/01 12:22:00;;;;;;;154.47;53.77;;;25.90;67.00;;;;;;5421634;26;20254;-47
2024/05/01 12:24:31;;;;;;;155.10;54.40;;;26.00;67.30;;;;;;5426272;26;20407;-47
2024/05/01 12:29:51;;;;;;;153.80;53.20;;;26.00;67.00;;;;;;5396253;26;20279;-49
2024/05/01 12:35:45;;;;;;;154.43;53.93;;;26.00;66.20;;;;;;5415543;26;20351;-48
2024/05/01 12:38:18;;;;;;;154.37;53.63;;;25.90;66.10;;;;;;5435250;26;20344;-56
2024/05/01 12:41:08;;;;;;;154.77;54.10;;;26.00;66.40;;;;;;5433766;26;20254;-50
2024/05/01 12:43:43;;;;;;;154.23;53.23;;;25.90;66.50;;;;;;5424025;26;20289;-52
2024/05/01 12:46:26;;;;;;;153.83;53.40;;;25.90;65.60;;;;;;5415033;26;20267;-53
2024/05/01 12:49:04;;;;;;;153.53;53.07;;;25.90;65.20;;;;;;5419692;26;20850;-53